Main page
METAR-TAF:

METAR-TAF

Airports :

Mason County Airport

Ludington, Michigan, United States

latitude: 43-58N, longitude: 086-24W, elevation: 646 ft

Current weather observation

The report was made 23 minutes ago, at 17:55 UTC
Wind 15 mph from the North/Northwest with gusts up to 18 mph
Temperature 43°F
Humidity 49%
Pressure 30.27 in. Hg
Visibility: 10 miles
Clear sky

METAR: KLDM 241755Z AUTO 34013G16KT 10SM CLR 06/M04 A3027 RMK AO2 T00621039 10069 20015

Time: 14:18 (18:18 UTC)


TAF: missing

Weather observations and forecasts of more than 4000 airports (METAR and TAF reports).

The available stations are represented by yellow and red dots on the map.

Hover mouse over dot to see the name of the station.

Then click to see weather observations and forecasts.

To change the map : click on the green buttons with a black cross to zoom in, on the green button with a dash to zoom out, or on the green arrows for adjacent maps.


METAR-TAF: